Aviation Digital Data Service (ADDS)

Output produced by TAFs form (1644 UTC 04 March 2015)
found at http://aviationweather.gov/adds/tafs/
 
KAMA 041557Z 0416/0512 04015G25KT 3SM -SN BR OVC006 
     FM042200 02020G30KT P6SM -SN OVC008 
     FM050100 01010KT P6SM SCT010 OVC060 
     FM050800 34006KT P6SM SCT080 SCT200